createdAt,value
2022-09-21T00:01:15.346Z,7.90
2022-09-21T00:03:42.453Z,7.91
2022-09-21T00:06:10.950Z,7.98
2022-09-21T00:08:37.620Z,7.99
2022-09-21T00:11:05.556Z,7.99
2022-09-21T00:13:33.413Z,8.03
2022-09-21T00:16:00.089Z,8.06
2022-09-21T00:18:26.643Z,8.12
2022-09-21T00:20:53.200Z,8.10
2022-09-21T00:23:20.346Z,8.07
2022-09-21T00:25:46.922Z,8.10
2022-09-21T00:28:13.318Z,8.09
2022-09-21T00:30:39.788Z,8.14
2022-09-21T00:33:06.945Z,8.14
2022-09-21T00:35:33.618Z,8.14
2022-09-21T00:38:04.040Z,8.15
2022-09-21T00:40:30.744Z,8.24
2022-09-21T00:43:14.392Z,8.20
2022-09-21T00:45:41.307Z,8.21
2022-09-21T00:48:07.887Z,8.29
2022-09-21T00:50:35.476Z,8.30
2022-09-21T00:53:04.424Z,8.31
2022-09-21T00:55:41.894Z,8.33
2022-09-21T00:58:15.590Z,8.34
2022-09-21T01:00:43.483Z,8.38
2022-09-21T01:03:10.949Z,8.35
2022-09-21T01:05:37.447Z,8.33
2022-09-21T01:08:06.918Z,8.43
2022-09-21T01:11:08.365Z,8.41
2022-09-21T01:13:46.768Z,8.43
2022-09-21T01:16:44.855Z,8.41
2022-09-21T01:19:13.918Z,8.42
2022-09-21T01:22:01.311Z,8.48
2022-09-21T01:24:48.587Z,8.47
2022-09-21T01:27:52.040Z,8.47
2022-09-21T01:30:21.124Z,8.52
2022-09-21T01:33:07.356Z,8.50
2022-09-21T01:35:47.564Z,8.51
2022-09-21T01:38:19.723Z,8.50
2022-09-21T01:40:52.525Z,8.56
2022-09-21T01:43:25.423Z,8.63
2022-09-21T01:45:54.924Z,8.53
2022-09-21T01:48:23.246Z,8.61
2022-09-21T01:50:56.556Z,8.56
2022-09-21T01:53:31.574Z,8.52
2022-09-21T01:56:00.311Z,8.58
2022-09-21T01:58:47.091Z,8.56
2022-09-21T02:01:20.039Z,8.55
2022-09-21T02:03:53.218Z,8.58
2022-09-21T02:06:19.818Z,8.57
2022-09-21T02:08:46.718Z,8.66
2022-09-21T02:11:13.982Z,8.58
2022-09-21T02:13:46.158Z,8.61
2022-09-21T02:16:36.520Z,8.58
2022-09-21T02:19:09.387Z,8.66
2022-09-21T02:21:57.528Z,8.69
2022-09-21T02:24:45.257Z,8.61
2022-09-21T02:27:33.290Z,8.67
2022-09-21T02:30:14.189Z,8.77
2022-09-21T02:32:50.362Z,8.69
2022-09-21T02:35:30.369Z,8.69
2022-09-21T02:38:08.843Z,8.56
2022-09-21T02:40:40.809Z,8.58
2022-09-21T02:43:14.536Z,8.55
2022-09-21T02:45:50.432Z,8.56
2022-09-21T02:48:18.706Z,8.56
2022-09-21T02:50:48.794Z,8.61
2022-09-21T02:53:19.218Z,8.60
2022-09-21T02:55:46.880Z,8.57
2022-09-21T02:58:14.624Z,8.58
2022-09-21T03:00:41.242Z,8.57
2022-09-21T03:03:22.331Z,8.61
2022-09-21T03:05:50.219Z,8.61
2022-09-21T03:08:17.525Z,8.58
2022-09-21T03:10:44.038Z,8.55
2022-09-21T03:13:10.963Z,8.61
2022-09-21T03:15:38.515Z,8.61
2022-09-21T03:18:06.420Z,8.62
2022-09-21T03:20:33.558Z,8.69
2022-09-21T03:23:00.534Z,8.63
2022-09-21T03:25:28.167Z,8.61
2022-09-21T03:27:54.883Z,8.62
2022-09-21T03:30:22.239Z,8.65
2022-09-21T03:32:50.381Z,8.64
2022-09-21T03:35:18.041Z,8.70
2022-09-21T03:37:44.641Z,8.68
2022-09-21T03:40:12.594Z,8.66
2022-09-21T03:42:40.360Z,8.70
2022-09-21T03:45:07.735Z,8.69
2022-09-21T03:47:34.172Z,8.73
2022-09-21T03:50:00.788Z,8.79
2022-09-21T03:52:27.220Z,8.74
2022-09-21T03:54:55.008Z,8.82
2022-09-21T03:57:21.463Z,8.83
2022-09-21T03:59:49.002Z,8.74
2022-09-21T04:02:16.355Z,8.90
2022-09-21T04:04:42.960Z,8.84
2022-09-21T04:07:09.441Z,8.84
2022-09-21T04:09:35.888Z,8.87
2022-09-21T04:12:02.640Z,8.84
2022-09-21T04:14:29.114Z,8.86
2022-09-21T04:16:55.541Z,8.85
2022-09-21T04:19:22.489Z,8.89
2022-09-21T04:21:51.375Z,8.95
2022-09-21T04:24:19.295Z,8.95
2022-09-21T04:26:46.239Z,9.00
2022-09-21T04:29:16.193Z,8.99
2022-09-21T04:31:42.630Z,8.93
2022-09-21T04:34:12.435Z,8.95
2022-09-21T04:36:38.989Z,8.97
2022-09-21T04:39:06.342Z,8.99
2022-09-21T04:41:33.004Z,8.98
2022-09-21T04:43:59.846Z,8.94
2022-09-21T04:46:26.299Z,9.06
2022-09-21T04:48:53.128Z,9.12
2022-09-21T04:51:19.538Z,9.10
2022-09-21T04:53:45.961Z,9.11
2022-09-21T04:56:14.478Z,9.10
2022-09-21T04:58:40.913Z,9.12
2022-09-21T05:01:07.768Z,9.10
2022-09-21T05:03:34.611Z,9.11
2022-09-21T05:06:01.748Z,9.14
2022-09-21T05:08:47.152Z,9.18
2022-09-21T05:11:18.549Z,9.18
2022-09-21T05:13:45.493Z,9.19
2022-09-21T05:16:11.972Z,9.18
2022-09-21T05:18:38.511Z,9.18
2022-09-21T05:21:06.274Z,9.26
2022-09-21T05:23:33.350Z,9.29
2022-09-21T05:26:00.300Z,9.38
2022-09-21T05:28:27.296Z,9.39
2022-09-21T05:31:19.386Z,9.48
2022-09-21T05:33:52.560Z,9.43
2022-09-21T05:36:40.102Z,9.46
2022-09-21T05:39:07.247Z,9.49
2022-09-21T05:41:34.306Z,9.53
2022-09-21T05:44:01.246Z,9.42
2022-09-21T05:46:38.951Z,9.48
2022-09-21T05:49:15.256Z,9.55
2022-09-21T05:51:59.260Z,9.57
2022-09-21T05:54:45.005Z,9.62
2022-09-21T05:57:16.552Z,9.64
2022-09-21T05:59:48.223Z,9.71
2022-09-21T06:02:40.361Z,9.87
2022-09-21T06:05:14.561Z,9.87
2022-09-21T06:07:43.816Z,9.96
2022-09-21T06:10:12.367Z,10.03
2022-09-21T06:12:38.999Z,10.00
2022-09-21T06:15:07.407Z,10.00
2022-09-21T06:17:33.820Z,9.96
2022-09-21T06:20:00.373Z,10.04
2022-09-21T06:22:26.811Z,10.03
2022-09-21T06:24:53.349Z,10.13
2022-09-21T06:27:20.042Z,10.23
2022-09-21T06:29:46.629Z,10.24
2022-09-21T06:32:13.120Z,10.30
2022-09-21T06:34:39.607Z,10.29
2022-09-21T06:37:06.166Z,10.18
2022-09-21T06:39:32.716Z,10.31
2022-09-21T06:41:59.492Z,10.38
2022-09-21T06:44:26.251Z,10.53
2022-09-21T06:46:52.724Z,10.64
2022-09-21T06:49:19.455Z,10.78
2022-09-21T06:51:47.784Z,11.05
2022-09-21T06:54:14.373Z,11.31
2022-09-21T06:56:43.327Z,11.50
2022-09-21T06:59:09.886Z,11.75
2022-09-21T07:01:36.619Z,11.61
2022-09-21T07:04:04.313Z,11.68
2022-09-21T07:06:30.926Z,11.76
2022-09-21T07:11:45.035Z,11.72
2022-09-21T07:14:11.598Z,11.79
2022-09-21T07:16:38.231Z,11.92
2022-09-21T07:19:11.148Z,12.89
2022-09-21T07:21:38.160Z,13.35
2022-09-21T07:24:09.507Z,13.25
2022-09-21T07:26:38.518Z,13.32
2022-09-21T07:29:05.218Z,12.92
2022-09-21T07:31:31.954Z,12.78
2022-09-21T07:33:59.104Z,14.14
2022-09-21T07:36:26.278Z,17.78
2022-09-21T07:38:55.192Z,20.56
2022-09-21T07:41:22.585Z,22.00
2022-09-21T07:43:49.186Z,21.58
2022-09-21T07:46:15.793Z,21.00
2022-09-21T07:48:42.776Z,21.12
2022-09-21T07:51:14.667Z,21.55
2022-09-21T07:53:44.462Z,18.66
2022-09-21T07:56:18.051Z,17.65
2022-09-21T07:59:06.967Z,17.80
2022-09-21T08:01:35.229Z,20.43
2022-09-21T08:04:03.693Z,19.45
2022-09-21T08:06:32.978Z,18.65
2022-09-21T08:09:00.449Z,19.00
2022-09-21T08:11:28.381Z,20.02
2022-09-21T08:13:59.541Z,20.62
2022-09-21T08:16:26.555Z,20.48
2022-09-21T08:18:53.246Z,18.50
2022-09-21T08:21:20.512Z,17.08
2022-09-21T08:23:49.303Z,16.05
2022-09-21T08:26:20.660Z,15.08
2022-09-21T08:28:49.948Z,14.27
2022-09-21T08:31:19.115Z,14.00
2022-09-21T08:33:46.576Z,13.89
2022-09-21T08:36:13.273Z,13.58
2022-09-21T08:38:40.156Z,13.34
2022-09-21T08:41:22.971Z,13.10
2022-09-21T08:43:52.980Z,12.91
2022-09-21T08:46:22.603Z,12.75
2022-09-21T08:49:00.794Z,12.69
2022-09-21T08:51:30.776Z,13.00
2022-09-21T08:54:02.398Z,12.83
2022-09-21T08:56:41.835Z,12.77
2022-09-21T08:59:15.808Z,13.21
2022-09-21T09:01:59.571Z,13.70
2022-09-21T09:04:44.276Z,13.54
2022-09-21T09:07:37.600Z,13.32
2022-09-21T09:10:23.482Z,13.28
2022-09-21T09:13:10.385Z,13.40
2022-09-21T09:15:48.841Z,13.44
2022-09-21T09:18:43.771Z,13.39
2022-09-21T09:21:40.216Z,13.25
2022-09-21T09:24:13.829Z,13.26
2022-09-21T09:26:54.117Z,13.16
2022-09-21T09:29:51.644Z,12.87
2022-09-21T09:32:18.420Z,12.83
2022-09-21T09:34:53.731Z,13.01
2022-09-21T09:37:25.092Z,13.26
2022-09-21T09:39:55.184Z,13.45
2022-09-21T09:42:29.048Z,13.70
2022-09-21T09:45:26.327Z,14.04
2022-09-21T09:48:15.951Z,13.90
2022-09-21T09:50:42.868Z,13.69
2022-09-21T09:53:13.322Z,13.57
2022-09-21T09:55:43.775Z,13.57
2022-09-21T09:58:25.396Z,13.54
2022-09-21T10:00:53.661Z,13.55
2022-09-21T10:03:26.098Z,13.78
2022-09-21T10:05:53.052Z,14.21
2022-09-21T10:08:30.091Z,14.73
2022-09-21T10:10:56.692Z,14.78
2022-09-21T10:13:25.489Z,15.17
2022-09-21T10:15:55.081Z,15.45
2022-09-21T10:18:50.290Z,15.65
2022-09-21T10:21:23.009Z,15.63
2022-09-21T10:24:18.876Z,15.78
2022-09-21T10:26:54.674Z,15.73
2022-09-21T10:29:25.166Z,15.55
2022-09-21T10:32:12.318Z,15.37
2022-09-21T10:34:42.028Z,15.46
2022-09-21T10:37:37.118Z,15.06
2022-09-21T10:40:08.921Z,14.71
2022-09-21T10:42:37.292Z,14.46
2022-09-21T10:45:15.117Z,14.63
2022-09-21T10:47:44.571Z,14.87
2022-09-21T10:50:25.331Z,14.99
2022-09-21T10:52:57.846Z,14.99
2022-09-21T10:55:25.378Z,14.89
2022-09-21T10:57:52.683Z,14.98
2022-09-21T11:00:21.732Z,15.13
2022-09-21T11:02:48.704Z,15.14
2022-09-21T11:05:31.291Z,14.93
2022-09-21T11:08:06.089Z,14.96
2022-09-21T11:10:53.734Z,15.22
2022-09-21T11:13:28.850Z,15.35
2022-09-21T11:16:27.385Z,15.84
2022-09-21T11:19:18.843Z,16.07
2022-09-21T11:22:10.487Z,15.72
2022-09-21T11:25:31.309Z,15.49
2022-09-21T11:28:15.138Z,14.95
2022-09-21T11:31:09.550Z,14.89
2022-09-21T11:33:55.802Z,15.25
2022-09-21T11:36:26.593Z,15.49
2022-09-21T11:39:00.643Z,15.55
2022-09-21T11:41:35.980Z,15.42
2022-09-21T11:44:24.096Z,15.38
2022-09-21T11:46:58.152Z,15.45
2022-09-21T11:50:13.099Z,15.37
2022-09-21T11:52:53.209Z,15.47
2022-09-21T11:55:50.565Z,15.69
2022-09-21T11:58:27.654Z,15.98
2022-09-21T12:01:33.029Z,15.95
2022-09-21T12:04:40.985Z,15.87
2022-09-21T12:07:44.378Z,15.86
2022-09-21T12:10:28.948Z,15.97
2022-09-21T12:13:06.956Z,16.10
2022-09-21T12:15:56.850Z,16.39
2022-09-21T12:18:55.808Z,16.19
2022-09-21T12:21:29.235Z,16.17
2022-09-21T12:24:21.966Z,16.32
2022-09-21T12:26:53.405Z,16.20
2022-09-21T12:29:28.532Z,16.31
2022-09-21T12:32:23.110Z,16.33
2022-09-21T12:34:58.970Z,16.49
2022-09-21T12:37:31.922Z,16.02
2022-09-21T12:40:07.212Z,16.06
2022-09-21T12:42:49.159Z,15.86
2022-09-21T12:45:28.842Z,15.61
2022-09-21T12:48:01.114Z,15.55
2022-09-21T12:50:34.963Z,15.73
2022-09-21T12:53:02.001Z,15.91
2022-09-21T12:55:44.422Z,15.83
2022-09-21T12:58:27.238Z,15.63
2022-09-21T13:01:01.255Z,15.04
2022-09-21T13:03:45.504Z,14.34
2022-09-21T13:06:48.401Z,13.63
2022-09-21T13:09:17.767Z,13.05
2022-09-21T13:11:56.585Z,12.52
2022-09-21T13:14:26.360Z,12.35
2022-09-21T13:16:59.094Z,12.23
2022-09-21T13:19:29.086Z,12.20
2022-09-21T13:22:16.147Z,12.31
2022-09-21T13:24:45.467Z,12.49
2022-09-21T13:27:13.870Z,12.73
2022-09-21T13:29:41.811Z,12.98
2022-09-21T13:32:14.317Z,13.34
2022-09-21T13:34:42.868Z,13.64
2022-09-21T13:37:13.912Z,13.67
2022-09-21T13:39:50.632Z,13.82
2022-09-21T13:42:32.615Z,14.24
2022-09-21T13:45:00.755Z,14.44
2022-09-21T13:47:29.766Z,14.73
2022-09-21T13:50:00.478Z,14.93
2022-09-21T13:52:36.448Z,14.64
2022-09-21T13:55:06.002Z,14.25
2022-09-21T13:57:41.945Z,14.41
2022-09-21T14:00:11.854Z,14.26
2022-09-21T14:02:40.729Z,14.16
2022-09-21T14:05:17.505Z,14.29
2022-09-21T14:07:46.959Z,14.30
2022-09-21T14:10:22.351Z,14.18
2022-09-21T14:12:50.374Z,14.46
2022-09-21T14:15:17.352Z,14.84
2022-09-21T14:17:44.251Z,15.02
2022-09-21T14:20:34.649Z,14.70
2022-09-21T14:23:16.570Z,14.42
2022-09-21T14:25:54.469Z,14.37
2022-09-21T14:28:35.561Z,14.40
2022-09-21T14:31:21.176Z,14.55
2022-09-21T14:33:55.061Z,14.56
2022-09-21T14:36:34.703Z,14.56
2022-09-21T14:39:04.989Z,14.39
2022-09-21T14:41:38.158Z,14.46
2022-09-21T14:44:05.307Z,14.34
2022-09-21T14:46:45.425Z,14.61
2022-09-21T14:49:12.027Z,14.72
2022-09-21T14:52:32.138Z,14.87
2022-09-21T14:55:17.316Z,14.86
2022-09-21T14:57:50.721Z,14.92
2022-09-21T15:00:26.247Z,14.71
2022-09-21T15:03:05.637Z,14.51
2022-09-21T15:05:43.806Z,14.42
2022-09-21T15:08:47.021Z,14.35
2022-09-21T15:11:26.248Z,14.50
2022-09-21T15:14:08.469Z,14.48
2022-09-21T15:16:38.087Z,14.51
2022-09-21T15:19:23.021Z,14.35
2022-09-21T15:21:50.344Z,14.20
2022-09-21T15:24:25.742Z,13.85
2022-09-21T15:26:55.997Z,13.55
2022-09-21T15:29:28.062Z,13.31
2022-09-21T15:31:55.075Z,13.09
2022-09-21T15:34:22.311Z,13.07
2022-09-21T15:36:52.777Z,13.03
2022-09-21T15:39:29.655Z,12.96
2022-09-21T15:42:18.528Z,12.87
2022-09-21T15:44:48.537Z,12.76
2022-09-21T15:47:18.255Z,12.66
2022-09-21T15:49:45.554Z,12.65
2022-09-21T15:52:22.606Z,12.63
2022-09-21T15:54:53.495Z,12.55
2022-09-21T15:57:26.499Z,12.43
2022-09-21T15:59:53.970Z,12.29
2022-09-21T16:02:23.260Z,12.15
2022-09-21T16:04:51.669Z,11.98
2022-09-21T16:07:27.025Z,11.78
2022-09-21T16:09:53.709Z,11.58
2022-09-21T16:12:26.115Z,11.40
2022-09-21T16:15:15.526Z,11.30
2022-09-21T16:17:55.077Z,11.21
2022-09-21T16:20:23.633Z,11.11
2022-09-21T16:22:54.723Z,10.96
2022-09-21T16:25:25.277Z,10.97
2022-09-21T16:27:58.120Z,10.95
2022-09-21T16:30:52.472Z,10.86
2022-09-21T16:33:42.779Z,10.83
2022-09-21T16:36:25.557Z,10.75
2022-09-21T16:38:55.640Z,10.65
2022-09-21T16:41:23.919Z,10.61
2022-09-21T16:43:51.038Z,10.55
2022-09-21T16:46:18.582Z,10.51
2022-09-21T16:48:45.274Z,10.44
2022-09-21T16:51:12.771Z,10.39
2022-09-21T16:53:39.267Z,10.37
2022-09-21T16:56:06.968Z,10.49
2022-09-21T16:58:33.375Z,10.62
2022-09-21T17:01:01.084Z,10.66
2022-09-21T17:03:29.229Z,10.51
2022-09-21T17:05:57.250Z,10.33
2022-09-21T17:08:24.618Z,10.27
2022-09-21T17:10:51.285Z,10.27
2022-09-21T17:13:20.568Z,10.19
2022-09-21T17:15:48.887Z,10.13
2022-09-21T17:18:15.459Z,10.05
2022-09-21T17:20:44.375Z,9.94
2022-09-21T17:23:10.939Z,10.01
2022-09-21T17:25:37.555Z,9.87
2022-09-21T17:28:13.026Z,9.85
2022-09-21T17:30:41.766Z,9.79
2022-09-21T17:33:10.663Z,9.80
2022-09-21T17:35:39.365Z,9.80
2022-09-21T17:38:12.427Z,9.69
2022-09-21T17:40:41.074Z,9.68
2022-09-21T17:43:18.627Z,9.77
2022-09-21T17:45:51.394Z,9.81
2022-09-21T17:48:20.501Z,9.74
2022-09-21T17:50:48.356Z,9.81
2022-09-21T17:53:34.549Z,9.75
2022-09-21T17:56:16.486Z,9.76
2022-09-21T17:59:03.834Z,9.77
2022-09-21T18:01:41.495Z,9.78
2022-09-21T18:04:11.151Z,9.76
2022-09-21T18:06:38.123Z,9.70
2022-09-21T18:09:05.124Z,9.73
2022-09-21T18:11:50.875Z,9.67
2022-09-21T18:14:28.416Z,9.68
2022-09-21T18:17:00.551Z,9.72
2022-09-21T18:19:36.615Z,9.67
2022-09-21T18:22:18.126Z,9.68
2022-09-21T18:24:44.799Z,9.67
2022-09-21T18:27:12.094Z,9.64
2022-09-21T18:29:41.381Z,9.65
2022-09-21T18:32:13.939Z,9.69
2022-09-21T18:35:08.656Z,9.70
2022-09-21T18:37:51.478Z,9.66
2022-09-21T18:40:26.712Z,9.66
2022-09-21T18:42:58.967Z,9.76
2022-09-21T18:45:31.927Z,9.67
2022-09-21T18:48:21.585Z,9.62
2022-09-21T18:51:12.050Z,9.59
2022-09-21T18:53:56.368Z,9.51
2022-09-21T18:56:24.455Z,9.50
2022-09-21T18:58:51.816Z,9.46
2022-09-21T19:01:21.722Z,9.48
2022-09-21T19:03:49.770Z,9.51
2022-09-21T19:06:33.651Z,9.50
2022-09-21T19:09:14.471Z,9.49
2022-09-21T19:12:04.220Z,9.55
2022-09-21T19:14:42.416Z,9.45
2022-09-21T19:17:34.156Z,9.48
2022-09-21T19:20:24.076Z,9.51
2022-09-21T19:22:59.817Z,9.45
2022-09-21T19:25:44.757Z,9.45
2022-09-21T19:28:24.681Z,9.49
2022-09-21T19:31:00.147Z,9.44
2022-09-21T19:33:48.976Z,9.40
2022-09-21T19:36:16.773Z,9.38
2022-09-21T19:38:43.310Z,9.43
2022-09-21T19:41:28.225Z,9.49
2022-09-21T19:44:12.668Z,9.46
2022-09-21T19:46:58.633Z,9.48
2022-09-21T19:49:36.087Z,9.45
2022-09-21T19:52:04.660Z,9.51
2022-09-21T19:54:50.124Z,9.53
2022-09-21T19:57:38.004Z,9.59
2022-09-21T20:00:10.583Z,9.48
2022-09-21T20:02:45.623Z,9.47
2022-09-21T20:05:23.172Z,9.50
2022-09-21T20:08:11.189Z,9.48
2022-09-21T20:10:51.751Z,9.47
2022-09-21T20:13:30.302Z,9.46
2022-09-21T20:16:26.205Z,9.50
2022-09-21T20:19:11.494Z,9.54
2022-09-21T20:21:40.329Z,9.56
2022-09-21T20:24:24.830Z,9.52
2022-09-21T20:26:51.879Z,9.48
2022-09-21T20:29:19.722Z,9.47
2022-09-21T20:31:47.866Z,9.43
2022-09-21T20:34:14.297Z,9.44
2022-09-21T20:36:40.790Z,9.44
2022-09-21T20:39:07.344Z,9.45
2022-09-21T20:41:33.813Z,9.42
2022-09-21T20:44:01.923Z,9.40
2022-09-21T20:46:28.613Z,9.38
2022-09-21T20:49:05.657Z,9.36
2022-09-21T20:51:34.161Z,9.29
2022-09-21T20:54:04.749Z,9.16
2022-09-21T20:56:31.257Z,9.10
2022-09-21T20:58:57.941Z,9.06
2022-09-21T21:01:24.904Z,9.01
2022-09-21T21:03:51.763Z,8.96
2022-09-21T21:06:21.247Z,8.90
2022-09-21T21:08:47.856Z,8.87
2022-09-21T21:11:17.219Z,8.83
2022-09-21T21:13:43.826Z,8.79
2022-09-21T21:16:12.366Z,8.78
2022-09-21T21:18:42.391Z,8.74
2022-09-21T21:21:09.315Z,8.69
2022-09-21T21:23:56.890Z,8.66
2022-09-21T21:26:38.183Z,8.61
2022-09-21T21:29:09.954Z,8.52
2022-09-21T21:31:36.519Z,8.53
2022-09-21T21:34:03.195Z,8.49
2022-09-21T21:36:29.772Z,8.50
2022-09-21T21:38:56.373Z,8.43
2022-09-21T21:41:23.133Z,8.41
2022-09-21T21:43:49.774Z,8.38
2022-09-21T21:46:16.257Z,8.31
2022-09-21T21:48:42.808Z,8.29
2022-09-21T21:51:09.590Z,8.36
2022-09-21T21:53:38.004Z,8.27
2022-09-21T21:56:12.105Z,8.25
2022-09-21T21:58:38.923Z,8.23
2022-09-21T22:01:21.367Z,8.22
2022-09-21T22:03:52.763Z,8.24
2022-09-21T22:06:19.448Z,8.23
2022-09-21T22:08:46.078Z,8.20
2022-09-21T22:11:12.541Z,8.20
2022-09-21T22:13:39.687Z,8.23
2022-09-21T22:16:08.451Z,8.22
2022-09-21T22:18:36.030Z,8.21
2022-09-21T22:21:07.637Z,8.27
2022-09-21T22:23:34.854Z,8.28
2022-09-21T22:26:12.567Z,8.26
2022-09-21T22:28:40.854Z,8.35
2022-09-21T22:31:12.774Z,8.36
2022-09-21T22:33:39.528Z,8.31
2022-09-21T22:36:14.357Z,8.34
2022-09-21T22:38:43.116Z,8.35
2022-09-21T22:41:14.917Z,8.47
2022-09-21T22:43:41.453Z,8.42
2022-09-21T22:46:07.983Z,8.37
2022-09-21T22:48:35.199Z,8.36
2022-09-21T22:51:02.390Z,8.30
2022-09-21T22:53:29.637Z,8.27
2022-09-21T22:56:10.537Z,8.24
2022-09-21T22:58:39.192Z,8.22
2022-09-21T23:01:13.318Z,8.21
2022-09-21T23:03:41.504Z,8.18
2022-09-21T23:06:11.040Z,8.11
2022-09-21T23:08:38.904Z,8.07
2022-09-21T23:11:07.546Z,8.02
2022-09-21T23:13:34.096Z,7.98
2022-09-21T23:16:02.265Z,8.00
2022-09-21T23:18:29.295Z,8.01
2022-09-21T23:21:00.128Z,7.97
2022-09-21T23:23:26.944Z,7.92
2022-09-21T23:26:05.067Z,7.89
2022-09-21T23:28:31.764Z,7.83
2022-09-21T23:31:00.335Z,7.87
2022-09-21T23:33:31.648Z,7.85
2022-09-21T23:35:58.203Z,7.88
2022-09-21T23:38:24.608Z,7.82
2022-09-21T23:40:51.405Z,7.75
2022-09-21T23:43:17.975Z,7.70
2022-09-21T23:45:44.521Z,7.72
2022-09-21T23:48:10.914Z,7.69
2022-09-21T23:50:37.435Z,7.67
2022-09-21T23:53:04.268Z,7.66
2022-09-21T23:55:31.007Z,7.65
2022-09-21T23:57:57.758Z,7.66
